Time;durP1;ratioP1;P1;durP2;ratioP2;P2;SDS_P1;SDS_P2;PMS_P1;PMS_P2;Temp;Humidity;BMP_temperature;BMP_pressure;BME280_temperature;BME280_humidity;BME280_pressure;Samples;Min_cycle;Max_cycle;Signal;HPM_P1;HPM_P2
2021/09/13 00:06:23;;;;;;;0.70;0.60;;;23.00;99.90;;;;;;20847620;28;20215;-68
2021/09/13 00:16:26;;;;;;;0.40;0.22;;;23.00;99.90;;;;;;20861394;28;20216;-68
2021/09/13 00:26:31;;;;;;;0.63;0.60;;;22.90;99.90;;;;;;20793904;28;20198;-67
2021/09/13 00:36:35;;;;;;;0.80;0.77;;;22.80;99.90;;;;;;20777493;28;20213;-69
2021/09/13 00:46:40;;;;;;;0.28;0.28;;;22.70;99.90;;;;;;20777942;28;20205;-68
2021/09/13 00:56:45;;;;;;;0.65;0.65;;;22.60;99.90;;;;;;20781092;28;20226;-69
2021/09/13 01:06:50;;;;;;;2.55;0.80;;;22.50;99.90;;;;;;20807765;22;20678;-68
2021/09/13 01:16:53;;;;;;;0.70;0.67;;;22.50;99.90;;;;;;20866459;28;20434;-71
2021/09/13 01:27:01;;;;;;;1.30;0.50;;;22.40;99.90;;;;;;20802539;28;21100;-67
2021/09/13 01:37:05;;;;;;;0.90;0.77;;;22.30;99.90;;;;;;20790440;28;20222;-69
2021/09/13 01:47:10;;;;;;;1.43;0.50;;;22.30;99.90;;;;;;20794023;28;20205;-69
2021/09/13 01:57:13;;;;;;;1.00;0.97;;;22.30;99.90;;;;;;20788356;28;20222;-69
2021/09/13 02:07:19;;;;;;;0.30;0.30;;;22.20;99.90;;;;;;20867967;22;20233;-68
2021/09/13 02:17:23;;;;;;;0.60;0.40;;;22.10;99.90;;;;;;20870865;28;20700;-68
2021/09/13 02:27:28;;;;;;;0.93;0.83;;;22.20;99.90;;;;;;20870603;28;20360;-69
2021/09/13 02:37:33;;;;;;;0.27;0.13;;;22.00;99.90;;;;;;20871587;28;20221;-68
2021/09/13 02:47:37;;;;;;;0.87;0.50;;;21.90;99.90;;;;;;20867967;28;20560;-68
2021/09/13 02:57:41;;;;;;;0.90;0.63;;;21.90;99.90;;;;;;20867256;28;21206;-69
2021/09/13 03:07:47;;;;;;;1.20;0.93;;;21.90;99.90;;;;;;20953666;23;20243;-69
2021/09/13 03:17:51;;;;;;;2.30;0.77;;;21.90;99.90;;;;;;21042124;28;20509;-68
2021/09/13 03:27:58;;;;;;;0.43;0.43;;;21.90;99.90;;;;;;21041070;28;20200;-69
2021/09/13 03:38:02;;;;;;;0.68;0.68;;;21.90;99.90;;;;;;21031882;28;20232;-69
2021/09/13 03:48:07;;;;;;;0.30;0.30;;;21.80;99.90;;;;;;21027680;28;20197;-69
2021/09/13 03:58:10;;;;;;;3.40;1.40;;;21.80;99.90;;;;;;21029272;28;20238;-68
2021/09/13 04:08:20;;;;;;;0.37;0.37;;;21.80;99.90;;;;;;21040514;23;20258;-69
2021/09/13 04:18:24;;;;;;;2.43;0.90;;;21.80;99.90;;;;;;21027317;28;20235;-70
2021/09/13 04:28:29;;;;;;;1.47;0.73;;;21.90;99.90;;;;;;21007192;28;20199;-68
2021/09/13 04:38:32;;;;;;;1.13;1.00;;;21.90;99.90;;;;;;21006970;28;20584;-68
2021/09/13 04:48:37;;;;;;;0.30;0.27;;;22.00;99.90;;;;;;21024729;28;20294;-66
2021/09/13 04:58:41;;;;;;;1.40;0.50;;;22.10;99.90;;;;;;21024176;28;20232;-67
2021/09/13 05:08:46;;;;;;;2.40;0.63;;;22.00;99.90;;;;;;21025324;28;20224;-67
2021/09/13 05:18:49;;;;;;;0.65;0.65;;;22.10;99.90;;;;;;21007754;28;20440;-68
2021/09/13 05:28:54;;;;;;;0.73;0.73;;;22.20;99.90;;;;;;21024188;28;20254;-67
2021/09/13 05:38:58;;;;;;;11.13;0.77;;;22.30;99.90;;;;;;21022149;28;20235;-68
2021/09/13 05:49:05;;;;;;;0.20;0.10;;;22.40;99.90;;;;;;21037593;28;20630;-67
2021/09/13 05:59:09;;;;;;;0.77;0.75;;;22.60;99.90;;;;;;21028616;28;20238;-69
2021/09/13 06:09:14;;;;;;;1.33;1.20;;;22.60;99.90;;;;;;21007518;28;20230;-67
2021/09/13 06:19:17;;;;;;;0.35;0.32;;;22.80;99.90;;;;;;21032897;28;20224;-69
2021/09/13 06:29:23;;;;;;;2.72;1.63;;;23.20;99.90;;;;;;21033809;28;20196;-68
2021/09/13 06:39:26;;;;;;;0.40;0.40;;;23.70;99.90;;;;;;21033041;28;20575;-70
2021/09/13 06:49:31;;;;;;;0.47;0.47;;;24.20;99.90;;;;;;21014410;28;20203;-72
2021/09/13 06:59:36;;;;;;;0.47;0.47;;;24.80;99.90;;;;;;21011585;28;20236;-69
2021/09/13 07:09:41;;;;;;;1.05;0.85;;;25.20;99.90;;;;;;21029715;28;20196;-69
2021/09/13 07:19:45;;;;;;;3.92;1.23;;;25.40;99.90;;;;;;20957253;28;20967;-69
2021/09/13 07:29:50;;;;;;;0.65;0.50;;;25.70;99.90;;;;;;21027617;28;20203;-68
2021/09/13 07:39:54;;;;;;;1.27;0.88;;;25.60;99.90;;;;;;21029829;28;20558;-68
2021/09/13 07:49:59;;;;;;;0.75;0.75;;;25.70;99.90;;;;;;21026319;28;20196;-70
2021/09/13 08:00:04;;;;;;;0.20;0.00;;;25.80;99.90;;;;;;21009137;28;20223;-68
2021/09/13 08:10:10;;;;;;;0.20;0.00;;;26.10;99.90;;;;;;21024153;28;20201;-70
2021/09/13 08:20:13;;;;;;;0.20;0.00;;;26.40;99.90;;;;;;21027456;28;20228;-69
2021/09/13 08:30:18;;;;;;;0.20;0.00;;;26.40;99.90;;;;;;21022649;28;20204;-70
2021/09/13 08:40:22;;;;;;;1.70;1.60;;;26.40;99.90;;;;;;21022323;28;20437;-68
2021/09/13 08:50:36;;;;;;;1.25;1.15;;;26.50;99.90;;;;;;21024270;28;20196;-69
2021/09/13 09:00:43;;;;;;;0.90;0.80;;;26.80;99.90;;;;;;21020887;28;20704;-68
2021/09/13 09:10:53;;;;;;;2.25;1.77;;;27.10;99.90;;;;;;21024016;28;20200;-68
2021/09/13 09:20:57;;;;;;;0.80;0.70;;;27.60;99.90;;;;;;21035215;28;20227;-68
2021/09/13 09:31:02;;;;;;;2.30;1.55;;;27.80;99.90;;;;;;21037081;28;20667;-68
2021/09/13 09:41:08;;;;;;;0.80;0.68;;;27.90;99.90;;;;;;21034785;28;20226;-67
2021/09/13 09:51:30;;;;;;;8.15;1.85;;;27.70;99.90;;;;;;21034953;28;20556;-68
2021/09/13 10:01:38;;;;;;;1.13;0.90;;;28.30;99.90;;;;;;21036615;28;20712;-69
2021/09/13 10:11:45;;;;;;;0.45;0.22;;;28.80;99.90;;;;;;21033684;28;20282;-68
2021/09/13 10:21:50;;;;;;;0.35;0.30;;;29.00;99.90;;;;;;21032004;28;20232;-69
2021/09/13 10:32:06;;;;;;;0.88;0.80;;;28.80;99.90;;;;;;21031924;28;20500;-68
2021/09/13 10:42:09;;;;;;;0.45;0.35;;;29.30;99.90;;;;;;21034327;28;20578;-71
2021/09/13 10:52:38;;;;;;;0.60;0.43;;;29.00;99.90;;;;;;21030150;28;20185;-69
2021/09/13 11:02:42;;;;;;;1.25;0.85;;;29.40;99.90;;;;;;21018048;28;20756;-69
2021/09/13 11:12:51;;;;;;;0.75;0.55;;;29.80;99.90;;;;;;21028238;28;20710;-71
2021/09/13 11:22:55;;;;;;;0.65;0.40;;;29.60;99.90;;;;;;21028783;28;20532;-71
2021/09/13 11:33:00;;;;;;;0.25;0.10;;;30.30;99.90;;;;;;21026624;28;20215;-69
2021/09/13 11:43:09;;;;;;;0.32;0.32;;;29.50;99.90;;;;;;21027176;28;20220;-69
2021/09/13 11:53:15;;;;;;;0.95;0.82;;;29.40;99.90;;;;;;21025112;28;20216;-69
2021/09/13 12:03:18;;;;;;;0.45;0.40;;;29.40;99.90;;;;;;21022697;28;20259;-68
2021/09/13 12:13:25;;;;;;;0.60;0.60;;;30.60;99.90;;;;;;21024572;28;20257;-67
2021/09/13 12:23:32;;;;;;;0.32;0.32;;;31.50;99.90;;;;;;21020378;28;20215;-68
2021/09/13 12:33:39;;;;;;;0.55;0.45;;;31.20;99.90;;;;;;21016104;28;20332;-70
2021/09/13 12:43:45;;;;;;;0.40;0.35;;;30.70;99.90;;;;;;21013273;28;20258;-71
2021/09/13 12:53:59;;;;;;;0.65;0.65;;;30.10;99.90;;;;;;21030220;28;20253;-67
2021/09/13 13:04:05;;;;;;;0.63;0.50;;;30.60;99.90;;;;;;21039687;28;20235;-67
2021/09/13 13:14:12;;;;;;;0.88;0.63;;;30.90;99.90;;;;;;21036468;28;20203;-67
2021/09/13 13:24:18;;;;;;;0.38;0.28;;;31.70;99.90;;;;;;21036678;28;20243;-68
2021/09/13 13:34:23;;;;;;;0.95;0.75;;;30.90;99.90;;;;;;21036285;28;20203;-69
2021/09/13 13:44:27;;;;;;;0.57;0.35;;;30.60;99.90;;;;;;21032800;28;20300;-68
2021/09/13 13:54:32;;;;;;;0.20;0.20;;;29.90;99.90;;;;;;21034688;28;20208;-68
2021/09/13 14:04:36;;;;;;;0.38;0.38;;;31.60;99.90;;;;;;21031123;28;20228;-67
2021/09/13 14:14:41;;;;;;;0.30;0.30;;;30.90;99.90;;;;;;21014887;28;21045;-67
2021/09/13 14:24:47;;;;;;;1.20;0.57;;;32.00;99.90;;;;;;21014985;28;20223;-70
2021/09/13 14:34:52;;;;;;;0.70;0.57;;;31.80;99.90;;;;;;21013429;28;20653;-71
2021/09/13 14:44:56;;;;;;;0.50;0.45;;;29.90;99.90;;;;;;21011978;28;20252;-69
2021/09/13 14:55:02;;;;;;;0.98;0.77;;;29.10;99.90;;;;;;21026521;28;20214;-69
2021/09/13 15:05:07;;;;;;;0.50;0.50;;;28.50;99.90;;;;;;21027194;28;20621;-68
2021/09/13 15:15:12;;;;;;;8.98;0.80;;;30.10;99.90;;;;;;21024200;28;20405;-69
2021/09/13 15:25:16;;;;;;;0.63;0.60;;;30.20;99.90;;;;;;21026769;28;20503;-68
2021/09/13 15:35:22;;;;;;;2.47;1.05;;;28.60;99.90;;;;;;21023299;28;20298;-71
2021/09/13 15:45:26;;;;;;;0.57;0.57;;;28.60;99.90;;;;;;21025258;28;20562;-70
2021/09/13 15:55:31;;;;;;;3.58;0.52;;;28.50;99.90;;;;;;21020563;28;20585;-72
2021/09/13 16:05:35;;;;;;;0.30;0.30;;;27.70;99.90;;;;;;21006037;28;20227;-71
2021/09/13 16:15:40;;;;;;;1.15;1.02;;;27.40;99.90;;;;;;21021788;28;20192;-70
2021/09/13 16:25:48;;;;;;;1.58;0.77;;;27.60;99.90;;;;;;21021062;28;20226;-69
2021/09/13 16:35:54;;;;;;;0.30;0.30;;;27.70;99.90;;;;;;21021123;28;20708;-69
2021/09/13 16:46:17;;;;;;;1.00;0.25;;;27.50;99.90;;;;;;21020702;28;21013;-68
2021/09/13 16:56:23;;;;;;;0.65;0.20;;;27.50;99.90;;;;;;21020114;28;20822;-75
2021/09/13 17:06:27;;;;;;;0.73;0.73;;;27.10;99.90;;;;;;21020696;28;20235;-71
2021/09/13 17:16:32;;;;;;;0.85;0.75;;;26.90;99.90;;;;;;21018980;28;20234;-72
2021/09/13 17:26:37;;;;;;;0.57;0.45;;;26.60;99.90;;;;;;21001925;28;20609;-72
2021/09/13 17:36:42;;;;;;;0.38;0.20;;;26.40;99.90;;;;;;21021738;28;20720;-70
2021/09/13 17:46:46;;;;;;;0.25;0.15;;;26.30;99.90;;;;;;21035691;28;20555;-74
2021/09/13 17:56:52;;;;;;;0.60;0.52;;;26.20;99.90;;;;;;21034579;28;20212;-70
2021/09/13 18:06:58;;;;;;;0.50;0.43;;;26.30;99.90;;;;;;21033850;28;20224;-70
2021/09/13 18:17:03;;;;;;;1.42;1.27;;;26.10;99.90;;;;;;21035053;28;20224;-69
2021/09/13 18:27:07;;;;;;;0.85;0.57;;;26.00;99.90;;;;;;21031220;28;20204;-76
2021/09/13 18:37:12;;;;;;;1.85;0.95;;;26.10;99.90;;;;;;21035179;28;20486;-70
2021/09/13 18:47:16;;;;;;;0.98;0.98;;;26.10;99.90;;;;;;21030431;28;20212;-71
2021/09/13 18:57:21;;;;;;;0.20;0.10;;;26.20;99.90;;;;;;21031492;28;20649;-71
2021/09/13 19:07:25;;;;;;;0.57;0.30;;;26.30;99.90;;;;;;21029013;28;20315;-70
2021/09/13 19:17:30;;;;;;;0.57;0.30;;;26.30;99.90;;;;;;21025660;28;20231;-72
2021/09/13 19:27:33;;;;;;;0.65;0.65;;;26.30;99.90;;;;;;21026215;28;20641;-71
2021/09/13 19:37:44;;;;;;;0.57;0.55;;;26.30;99.90;;;;;;21027394;28;20228;-71
2021/09/13 19:47:47;;;;;;;0.22;0.17;;;26.30;99.90;;;;;;21027172;28;20197;-71
2021/09/13 19:57:52;;;;;;;2.30;0.88;;;26.30;99.90;;;;;;20989391;28;20215;-72
2021/09/13 20:07:56;;;;;;;0.30;0.30;;;26.30;99.90;;;;;;21026539;28;21034;-72
2021/09/13 20:18:01;;;;;;;0.75;0.47;;;26.30;99.90;;;;;;21007328;28;20219;-71
2021/09/13 20:28:05;;;;;;;7.68;0.73;;;26.30;99.90;;;;;;21025661;28;20548;-73
2021/09/13 20:38:11;;;;;;;0.43;0.30;;;26.30;99.90;;;;;;21022629;28;20235;-71
2021/09/13 20:48:14;;;;;;;3.03;0.45;;;26.20;99.90;;;;;;21020867;28;20204;-72
2021/09/13 20:58:20;;;;;;;1.75;0.68;;;26.10;99.90;;;;;;21021817;28;20234;-72
2021/09/13 21:08:24;;;;;;;0.60;0.22;;;26.20;99.90;;;;;;21022866;28;20277;-72
2021/09/13 21:18:29;;;;;;;0.80;0.77;;;26.20;99.90;;;;;;21018512;28;20214;-71
2021/09/13 21:28:33;;;;;;;0.93;0.47;;;26.00;99.90;;;;;;21038714;28;20195;-74
2021/09/13 21:38:38;;;;;;;0.68;0.65;;;25.90;99.90;;;;;;21017255;28;20261;-72
2021/09/13 21:48:42;;;;;;;0.28;0.17;;;25.90;99.90;;;;;;21034911;28;20192;-72
2021/09/13 21:58:47;;;;;;;0.80;0.68;;;25.90;99.90;;;;;;21013977;28;20603;-71
2021/09/13 22:08:50;;;;;;;0.80;0.65;;;26.00;99.90;;;;;;21034520;28;20563;-71
2021/09/13 22:18:56;;;;;;;1.75;0.80;;;26.00;99.90;;;;;;21033095;28;20224;-71
2021/09/13 22:28:59;;;;;;;0.57;0.47;;;25.80;99.90;;;;;;21031622;28;20657;-70
2021/09/13 22:39:04;;;;;;;0.93;0.50;;;25.80;99.90;;;;;;21032711;28;20232;-70
2021/09/13 22:49:08;;;;;;;1.15;0.80;;;25.60;99.90;;;;;;21030998;28;20198;-70
2021/09/13 22:59:13;;;;;;;2.72;1.05;;;25.60;99.90;;;;;;21030463;28;20220;-71
2021/09/13 23:09:16;;;;;;;2.58;1.38;;;25.40;99.90;;;;;;21029368;28;20228;-70
2021/09/13 23:19:21;;;;;;;0.20;0.10;;;25.30;99.90;;;;;;21029612;28;20227;-69
2021/09/13 23:29:25;;;;;;;0.50;0.38;;;25.30;99.90;;;;;;21027072;28;20218;-70
2021/09/13 23:39:30;;;;;;;0.22;0.22;;;25.20;99.90;;;;;;21028820;28;20239;-71
2021/09/13 23:49:34;;;;;;;0.68;0.52;;;25.10;99.90;;;;;;21028096;28;20199;-71
2021/09/13 23:59:39;;;;;;;3.63;0.93;;;24.90;99.90;;;;;;21030613;28;21057;-71
